Time;durP1;ratioP1;P1;durP2;ratioP2;P2;SDS_P1;SDS_P2;PMS_P1;PMS_P2;Temp;Humidity;BMP_temperature;BMP_pressure;BME280_temperature;BME280_humidity;BME280_pressure;Samples;Min_cycle;Max_cycle;Signal;HPM_P1;HPM_P2
2022/07/23 00:00:17;;;;;;;0.50;0.50;;;24.70;99.90;;;;;;4936785;29;20454;-69
2022/07/23 00:02:42;;;;;;;0.40;0.30;;;24.80;99.90;;;;;;4935848;29;20417;-69
2022/07/23 00:05:09;;;;;;;0.50;0.40;;;24.80;99.90;;;;;;4937109;29;20402;-69
2022/07/23 00:07:35;;;;;;;1.70;0.50;;;24.80;99.90;;;;;;4935666;29;20399;-69
2022/07/23 00:10:01;;;;;;;0.70;0.50;;;24.80;99.90;;;;;;4936880;29;20737;-68
2022/07/23 00:12:26;;;;;;;1.40;0.80;;;24.80;99.90;;;;;;4935386;29;20423;-69
2022/07/23 00:14:52;;;;;;;0.70;0.60;;;24.70;99.90;;;;;;4935190;29;20419;-68
2022/07/23 00:17:18;;;;;;;0.40;0.40;;;24.70;99.90;;;;;;4936262;29;20399;-68
2022/07/23 00:19:43;;;;;;;0.40;0.20;;;24.80;98.30;;;;;;4935440;29;20910;-68
2022/07/23 00:22:09;;;;;;;0.40;0.40;;;24.80;99.40;;;;;;4936235;29;20458;-68
2022/07/23 00:24:35;;;;;;;0.40;0.20;;;24.60;99.90;;;;;;4935746;29;20907;-69
2022/07/23 00:27:01;;;;;;;0.40;0.20;;;24.50;99.90;;;;;;4936332;29;20403;-68
2022/07/23 00:29:26;;;;;;;0.50;0.50;;;24.60;99.50;;;;;;4935188;29;20415;-69
2022/07/23 00:31:52;;;;;;;0.40;0.20;;;24.70;97.60;;;;;;4935589;29;20906;-69
2022/07/23 00:34:18;;;;;;;0.50;0.50;;;24.70;98.10;;;;;;4936186;29;20482;-68
2022/07/23 00:36:43;;;;;;;0.40;0.30;;;24.60;97.20;;;;;;4935419;29;20478;-68
2022/07/23 00:39:09;;;;;;;0.50;0.40;;;24.60;97.80;;;;;;4936131;29;20404;-68
2022/07/23 00:41:35;;;;;;;0.40;0.40;;;24.60;97.30;;;;;;4942766;29;20883;-69
2022/07/23 00:44:27;;;;;;;0.40;0.20;;;24.60;97.10;;;;;;4950402;29;20760;-68
2022/07/23 00:46:58;;;;;;;0.40;0.40;;;24.50;98.70;;;;;;4936226;29;20388;-69
2022/07/23 00:49:29;;;;;;;0.80;0.80;;;24.50;99.40;;;;;;4935585;29;20878;-70
2022/07/23 00:51:55;;;;;;;0.40;0.30;;;24.40;99.90;;;;;;4935884;29;20404;-69
2022/07/23 00:54:24;;;;;;;0.70;0.70;;;24.50;99.90;;;;;;4918981;29;20430;-69
2022/07/23 00:56:49;;;;;;;0.50;0.50;;;24.50;99.90;;;;;;4935227;29;20431;-69
2022/07/23 00:59:15;;;;;;;1.20;0.40;;;24.40;99.90;;;;;;4934449;29;20858;-68
2022/07/23 01:01:41;;;;;;;0.40;0.30;;;24.40;99.90;;;;;;4934650;29;20412;-69
2022/07/23 01:04:07;;;;;;;0.40;0.30;;;24.40;99.90;;;;;;4934525;29;20432;-69
2022/07/23 01:06:38;;;;;;;0.50;0.50;;;24.30;99.90;;;;;;4934951;29;20400;-69
2022/07/23 01:09:05;;;;;;;2.58;1.77;;;24.20;99.90;;;;;;4935479;29;20406;-68
2022/07/23 01:11:35;;;;;;;0.60;0.60;;;24.10;99.90;;;;;;4934803;29;20403;-69
2022/07/23 01:14:14;;;;;;;0.40;0.40;;;24.00;99.90;;;;;;4949155;29;20414;-69
2022/07/23 01:16:40;;;;;;;0.40;0.30;;;24.00;99.90;;;;;;4954196;29;20509;-69
2022/07/23 01:19:06;;;;;;;2.60;1.30;;;23.90;99.90;;;;;;4955041;29;20418;-69
2022/07/23 01:21:36;;;;;;;0.40;0.40;;;23.80;99.90;;;;;;4946903;29;20463;-69
2022/07/23 01:24:02;;;;;;;0.80;0.70;;;23.70;99.90;;;;;;4935805;29;20427;-68
2022/07/23 01:26:28;;;;;;;0.40;0.40;;;23.70;99.90;;;;;;4934639;29;20486;-69
2022/07/23 01:28:53;;;;;;;0.60;0.60;;;23.70;99.90;;;;;;4935004;29;20406;-71
2022/07/23 01:31:19;;;;;;;0.40;0.30;;;23.70;99.90;;;;;;4935156;29;20408;-71
2022/07/23 01:33:45;;;;;;;0.40;0.30;;;23.70;99.90;;;;;;4934393;29;21039;-72
2022/07/23 01:36:11;;;;;;;0.40;0.25;;;23.70;99.90;;;;;;4935165;29;20403;-72
2022/07/23 01:38:37;;;;;;;0.60;0.50;;;23.70;99.90;;;;;;4934392;29;20410;-69
2022/07/23 01:41:02;;;;;;;0.40;0.40;;;23.50;99.90;;;;;;4934887;29;20900;-68
2022/07/23 01:43:28;;;;;;;0.40;0.30;;;22.70;99.90;;;;;;4934006;29;20435;-68
2022/07/23 01:45:54;;;;;;;0.50;0.30;;;21.50;99.90;;;;;;4934648;29;20383;-68
2022/07/23 01:48:19;;;;;;;0.50;0.40;;;21.30;99.90;;;;;;4934894;29;20403;-68
2022/07/23 01:50:47;;;;;;;0.67;0.47;;;21.00;99.90;;;;;;4934036;29;20394;-68
2022/07/23 01:53:14;;;;;;;0.40;0.30;;;21.00;99.90;;;;;;4934797;29;20467;-68
2022/07/23 01:55:40;;;;;;;0.40;0.30;;;20.90;99.90;;;;;;4933843;29;20746;-68
2022/07/23 01:58:06;;;;;;;0.60;0.50;;;20.90;99.90;;;;;;4934871;29;20387;-68
2022/07/23 02:00:31;;;;;;;0.40;0.40;;;20.90;99.90;;;;;;4933782;29;20432;-68
2022/07/23 02:03:00;;;;;;;0.40;0.30;;;20.70;99.90;;;;;;4934740;29;20406;-69
2022/07/23 02:05:28;;;;;;;0.40;0.27;;;20.60;99.90;;;;;;4934389;29;20797;-68
2022/07/23 02:07:54;;;;;;;0.40;0.25;;;20.70;99.90;;;;;;4933017;29;20396;-67
2022/07/23 02:10:21;;;;;;;0.40;0.30;;;20.80;99.90;;;;;;4934628;29;20391;-67
2022/07/23 02:12:47;;;;;;;0.50;0.30;;;20.80;99.90;;;;;;4933737;29;20420;-68
2022/07/23 02:15:13;;;;;;;0.40;0.20;;;20.70;99.90;;;;;;4934107;29;20431;-67
2022/07/23 02:17:38;;;;;;;0.40;0.30;;;20.50;99.90;;;;;;4933565;29;20392;-68
2022/07/23 02:20:06;;;;;;;0.50;0.40;;;20.60;99.90;;;;;;4933904;29;20379;-67
2022/07/23 02:22:32;;;;;;;1.10;0.70;;;20.50;99.90;;;;;;4933469;29;20399;-68
2022/07/23 02:24:57;;;;;;;0.60;0.40;;;20.60;99.90;;;;;;4934613;29;20749;-67
2022/07/23 02:27:23;;;;;;;0.40;0.30;;;20.70;99.90;;;;;;4934291;29;20864;-68
2022/07/23 02:29:49;;;;;;;0.40;0.30;;;20.60;99.90;;;;;;4933528;29;20392;-68
2022/07/23 02:32:15;;;;;;;0.40;0.30;;;20.30;99.90;;;;;;4934138;29;20427;-68
2022/07/23 02:34:40;;;;;;;0.40;0.30;;;19.90;99.90;;;;;;4933081;29;20395;-68
2022/07/23 02:37:08;;;;;;;0.60;0.60;;;20.00;99.90;;;;;;4934196;29;20478;-68
2022/07/23 02:39:34;;;;;;;0.40;0.20;;;20.40;99.90;;;;;;4933143;29;20396;-68
2022/07/23 02:42:00;;;;;;;0.40;0.40;;;20.60;99.90;;;;;;4934089;29;20741;-68
2022/07/23 02:44:26;;;;;;;0.40;0.20;;;20.30;99.90;;;;;;4933415;29;20388;-68
2022/07/23 02:46:51;;;;;;;0.40;0.20;;;20.00;99.90;;;;;;4932683;29;20406;-68
2022/07/23 02:49:17;;;;;;;1.00;0.80;;;19.90;99.90;;;;;;4933556;29;20447;-68
2022/07/23 02:51:43;;;;;;;0.40;0.40;;;20.10;99.90;;;;;;4932619;29;20403;-68
2022/07/23 02:54:08;;;;;;;0.80;0.80;;;20.00;99.90;;;;;;4933063;29;20450;-68
2022/07/23 02:56:34;;;;;;;0.40;0.30;;;20.10;99.90;;;;;;4932262;29;20426;-68
2022/07/23 02:59:00;;;;;;;0.40;0.40;;;20.00;99.90;;;;;;4933122;29;20399;-68
2022/07/23 03:01:25;;;;;;;0.50;0.50;;;20.00;99.90;;;;;;4933557;29;20865;-68
2022/07/23 03:03:51;;;;;;;0.50;0.50;;;19.80;99.90;;;;;;4932057;29;20418;-69
2022/07/23 03:06:17;;;;;;;0.40;0.30;;;19.80;99.90;;;;;;4939217;29;20397;-68
2022/07/23 03:08:43;;;;;;;0.40;0.20;;;19.90;99.90;;;;;;4951976;29;20481;-68
2022/07/23 03:11:10;;;;;;;1.20;1.10;;;19.90;99.90;;;;;;4952781;29;20400;-68
2022/07/23 03:13:40;;;;;;;0.50;0.50;;;20.00;99.90;;;;;;4947531;29;20430;-68
2022/07/23 03:16:06;;;;;;;0.40;0.20;;;19.80;99.90;;;;;;4933475;29;20427;-68
2022/07/23 03:18:32;;;;;;;0.40;0.20;;;19.90;99.90;;;;;;4933031;29;20438;-68
2022/07/23 03:20:58;;;;;;;0.40;0.30;;;20.00;99.90;;;;;;4932026;29;20455;-68
2022/07/23 03:23:24;;;;;;;0.40;0.30;;;19.80;99.90;;;;;;4932776;29;20408;-68
2022/07/23 03:25:49;;;;;;;0.40;0.30;;;19.90;99.90;;;;;;4932299;29;20465;-68
2022/07/23 03:28:16;;;;;;;0.40;0.30;;;19.90;99.90;;;;;;4932988;29;20761;-68
2022/07/23 03:30:50;;;;;;;0.40;0.20;;;19.90;99.90;;;;;;4932025;29;20395;-68
2022/07/23 03:33:18;;;;;;;0.40;0.40;;;19.90;99.90;;;;;;4933023;29;20472;-68
2022/07/23 03:35:45;;;;;;;0.40;0.20;;;20.00;99.90;;;;;;4932473;29;20546;-68
2022/07/23 03:38:10;;;;;;;0.40;0.20;;;19.90;99.90;;;;;;4933121;29;20410;-68
2022/07/23 03:40:36;;;;;;;0.40;0.40;;;19.80;99.90;;;;;;4932478;29;20407;-68
2022/07/23 03:43:02;;;;;;;0.70;0.70;;;19.80;99.90;;;;;;4927301;29;20415;-68
2022/07/23 03:45:28;;;;;;;0.40;0.20;;;19.90;99.90;;;;;;4932244;29;20880;-68
2022/07/23 03:47:54;;;;;;;0.50;0.50;;;19.80;99.90;;;;;;4931407;29;20405;-68
2022/07/23 03:50:19;;;;;;;0.40;0.30;;;19.80;99.90;;;;;;4931823;29;20415;-68
2022/07/23 03:52:45;;;;;;;0.40;0.30;;;19.90;99.90;;;;;;4929792;29;20427;-68
2022/07/23 03:55:11;;;;;;;0.40;0.20;;;19.80;99.90;;;;;;4931232;29;20455;-68
2022/07/23 03:57:36;;;;;;;0.40;0.40;;;19.80;99.90;;;;;;4931223;29;20843;-68
2022/07/23 04:00:05;;;;;;;0.40;0.30;;;19.80;99.90;;;;;;4931849;29;20402;-69
2022/07/23 04:02:30;;;;;;;0.50;0.50;;;20.00;99.90;;;;;;4930446;29;20833;-69
2022/07/23 04:04:56;;;;;;;0.40;0.30;;;20.30;99.90;;;;;;4931006;29;20486;-68
2022/07/23 04:07:22;;;;;;;0.40;0.30;;;20.10;99.90;;;;;;4931556;29;20405;-69
2022/07/23 04:09:48;;;;;;;0.80;0.70;;;19.90;99.90;;;;;;4931068;29;20396;-68
2022/07/23 04:12:14;;;;;;;0.90;0.50;;;19.70;99.90;;;;;;4931024;29;20434;-68
2022/07/23 04:14:39;;;;;;;0.40;0.28;;;19.60;99.90;;;;;;4930083;29;20402;-68
2022/07/23 04:17:05;;;;;;;0.40;0.30;;;19.60;99.90;;;;;;4931870;29;20404;-68
2022/07/23 04:19:31;;;;;;;0.70;0.70;;;19.60;99.90;;;;;;4931946;29;20811;-68
2022/07/23 04:21:57;;;;;;;0.40;0.20;;;19.60;99.90;;;;;;4930484;29;21066;-69
2022/07/23 04:24:23;;;;;;;0.40;0.30;;;19.70;99.90;;;;;;4930792;29;20415;-68
2022/07/23 04:26:49;;;;;;;0.40;0.30;;;19.60;99.90;;;;;;4930844;29;20373;-69
2022/07/23 04:29:14;;;;;;;0.40;0.40;;;19.60;99.90;;;;;;4931329;29;20407;-68
2022/07/23 04:31:40;;;;;;;0.40;0.30;;;19.60;99.90;;;;;;4930558;29;21730;-68
2022/07/23 04:34:05;;;;;;;0.40;0.30;;;19.70;99.90;;;;;;4930396;29;20451;-69
2022/07/23 04:36:31;;;;;;;0.40;0.30;;;19.80;99.90;;;;;;4931376;29;20809;-68
2022/07/23 04:38:57;;;;;;;0.40;0.30;;;19.70;99.90;;;;;;4929659;29;20410;-68
2022/07/23 04:41:22;;;;;;;0.60;0.60;;;19.80;99.90;;;;;;4914430;29;20458;-69
2022/07/23 04:43:48;;;;;;;0.40;0.30;;;19.80;99.90;;;;;;4931730;29;20481;-69
2022/07/23 04:46:14;;;;;;;0.40;0.30;;;19.80;99.90;;;;;;4935144;29;20407;-69
2022/07/23 04:48:39;;;;;;;0.40;0.30;;;19.80;99.90;;;;;;4934995;29;20482;-68
2022/07/23 04:51:05;;;;;;;1.10;0.60;;;19.80;99.90;;;;;;4921227;29;20435;-69
2022/07/23 04:53:31;;;;;;;0.40;0.30;;;19.80;99.90;;;;;;4934764;29;20895;-69
2022/07/23 04:55:57;;;;;;;0.40;0.20;;;19.70;99.90;;;;;;4933908;29;20415;-69
2022/07/23 04:58:22;;;;;;;0.40;0.30;;;19.70;99.90;;;;;;4934834;29;20415;-69
2022/07/23 05:00:48;;;;;;;0.40;0.20;;;19.70;99.90;;;;;;4933771;29;20395;-68
2022/07/23 05:03:14;;;;;;;0.40;0.30;;;19.90;99.90;;;;;;4934730;29;20413;-69
2022/07/23 05:05:40;;;;;;;0.40;0.30;;;19.80;99.90;;;;;;4934272;29;20523;-69
2022/07/23 05:08:05;;;;;;;0.40;0.22;;;19.70;99.90;;;;;;4934365;29;20396;-69
2022/07/23 05:10:32;;;;;;;0.40;0.30;;;19.90;99.90;;;;;;4934995;29;20713;-69
2022/07/23 05:12:58;;;;;;;0.40;0.40;;;19.90;99.90;;;;;;4933373;29;20459;-69
2022/07/23 05:15:24;;;;;;;0.40;0.30;;;19.90;99.90;;;;;;4934560;29;20467;-69
2022/07/23 05:17:49;;;;;;;0.40;0.30;;;19.90;99.90;;;;;;4933623;29;20491;-69
2022/07/23 05:20:15;;;;;;;0.40;0.30;;;20.10;99.90;;;;;;4933897;29;20947;-69
2022/07/23 05:22:41;;;;;;;0.40;0.40;;;20.20;99.90;;;;;;4933827;29;21008;-69
2022/07/23 05:25:07;;;;;;;0.40;0.20;;;20.30;99.90;;;;;;4933997;29;20415;-69
2022/07/23 05:27:33;;;;;;;0.40;0.30;;;20.20;99.90;;;;;;4934565;29;20466;-69
2022/07/23 05:29:59;;;;;;;0.50;0.50;;;20.40;99.90;;;;;;4933614;29;20541;-69
2022/07/23 05:32:25;;;;;;;0.90;0.90;;;20.30;99.90;;;;;;4934024;29;20492;-69
2022/07/23 05:34:50;;;;;;;0.40;0.20;;;20.40;99.90;;;;;;4933553;29;20478;-69
2022/07/23 05:37:16;;;;;;;0.40;0.30;;;20.30;99.90;;;;;;4934123;29;20489;-69
2022/07/23 05:39:42;;;;;;;0.40;0.20;;;20.40;99.90;;;;;;4936607;29;20510;-69
2022/07/23 05:42:08;;;;;;;0.40;0.20;;;20.50;99.90;;;;;;4934186;29;20479;-69
2022/07/23 05:44:34;;;;;;;1.10;1.10;;;20.50;99.90;;;;;;4934475;29;20507;-69
2022/07/23 05:46:59;;;;;;;0.40;0.20;;;20.50;99.90;;;;;;4930703;29;20468;-69
2022/07/23 05:49:25;;;;;;;0.40;0.30;;;20.50;99.90;;;;;;4933667;29;20451;-69
2022/07/23 05:51:51;;;;;;;0.40;0.30;;;20.40;99.90;;;;;;4933143;29;20403;-69
2022/07/23 05:54:16;;;;;;;0.40;0.30;;;20.50;99.90;;;;;;4932799;29;20443;-69
2022/07/23 05:56:42;;;;;;;0.40;0.30;;;20.50;99.90;;;;;;4931002;29;20936;-69
2022/07/23 05:59:08;;;;;;;0.60;0.60;;;20.50;99.90;;;;;;4933597;29;20405;-69
2022/07/23 06:01:34;;;;;;;0.50;0.40;;;20.50;99.90;;;;;;4934151;29;20951;-69
2022/07/23 06:03:59;;;;;;;0.40;0.30;;;20.50;99.90;;;;;;4934274;29;20403;-70
2022/07/23 06:06:25;;;;;;;0.40;0.30;;;20.60;99.90;;;;;;4933982;29;20422;-69
2022/07/23 06:08:51;;;;;;;0.60;0.40;;;20.70;99.90;;;;;;4932886;29;20395;-69
2022/07/23 06:11:16;;;;;;;0.50;0.50;;;20.80;99.90;;;;;;4933965;29;20399;-70
2022/07/23 06:13:43;;;;;;;0.40;0.30;;;20.80;99.90;;;;;;4933251;29;20829;-70
2022/07/23 06:16:09;;;;;;;0.73;0.73;;;21.00;99.90;;;;;;4933316;29;20411;-69
2022/07/23 06:18:34;;;;;;;0.60;0.50;;;20.90;99.90;;;;;;4933508;29;20750;-69
2022/07/23 06:21:00;;;;;;;0.40;0.40;;;21.00;99.90;;;;;;4925905;29;20490;-70
2022/07/23 06:23:26;;;;;;;0.40;0.30;;;21.10;99.90;;;;;;4933911;29;20403;-70
2022/07/23 06:25:52;;;;;;;0.40;0.30;;;21.20;99.90;;;;;;4932675;29;20603;-70
2022/07/23 06:28:17;;;;;;;0.40;0.30;;;21.20;99.90;;;;;;4933369;29;20403;-70
2022/07/23 06:30:43;;;;;;;0.40;0.30;;;21.40;99.90;;;;;;4933489;29;20899;-70
2022/07/23 06:33:09;;;;;;;0.40;0.30;;;21.50;99.90;;;;;;4933569;29;20415;-69
2022/07/23 06:35:35;;;;;;;0.40;0.20;;;21.70;99.90;;;;;;4933962;29;20892;-70
2022/07/23 06:38:00;;;;;;;0.40;0.40;;;21.80;99.90;;;;;;4933071;29;20600;-69
2022/07/23 06:40:26;;;;;;;0.40;0.40;;;21.90;99.90;;;;;;4930510;29;20500;-70
2022/07/23 06:42:52;;;;;;;0.40;0.30;;;22.10;99.90;;;;;;4923192;29;20484;-70
2022/07/23 06:45:18;;;;;;;0.40;0.30;;;22.10;99.90;;;;;;4934195;29;20824;-69
2022/07/23 06:47:43;;;;;;;0.40;0.20;;;22.10;99.90;;;;;;4934055;29;20414;-70
2022/07/23 06:50:10;;;;;;;0.90;0.70;;;22.20;99.90;;;;;;4933472;29;20383;-70
2022/07/23 06:52:35;;;;;;;0.60;0.60;;;22.20;99.90;;;;;;4933768;29;20773;-70
2022/07/23 06:55:01;;;;;;;0.40;0.40;;;22.20;99.90;;;;;;4933398;29;20419;-70
2022/07/23 06:57:27;;;;;;;0.40;0.30;;;22.30;99.90;;;;;;4933600;29;20431;-70
2022/07/23 06:59:53;;;;;;;0.40;0.40;;;22.30;99.90;;;;;;4931006;29;20422;-69
2022/07/23 07:02:19;;;;;;;0.40;0.30;;;22.30;99.90;;;;;;4932916;29;20407;-69
2022/07/23 07:04:45;;;;;;;0.50;0.50;;;22.40;99.90;;;;;;4931577;29;20400;-70
2022/07/23 07:07:12;;;;;;;0.50;0.50;;;22.40;99.90;;;;;;4932727;29;20395;-70
2022/07/23 07:09:38;;;;;;;0.40;0.30;;;22.30;99.90;;;;;;4932937;29;20403;-69
2022/07/23 07:12:04;;;;;;;0.40;0.30;;;22.40;99.90;;;;;;4914224;29;20407;-69
2022/07/23 07:14:29;;;;;;;0.50;0.50;;;22.50;99.90;;;;;;4930696;29;20418;-68
2022/07/23 07:16:55;;;;;;;0.40;0.20;;;22.50;99.90;;;;;;4932283;29;20400;-69
2022/07/23 07:19:21;;;;;;;0.40;0.30;;;22.40;99.90;;;;;;4932889;29;20883;-68
2022/07/23 07:21:47;;;;;;;1.20;1.10;;;22.50;99.90;;;;;;4930315;29;20408;-69
2022/07/23 07:24:13;;;;;;;0.90;0.80;;;22.50;99.90;;;;;;4927696;29;20400;-69
2022/07/23 07:26:39;;;;;;;0.50;0.50;;;22.50;99.90;;;;;;4932691;29;20399;-69
2022/07/23 07:29:05;;;;;;;0.80;0.80;;;22.60;99.90;;;;;;4930891;29;20891;-69
2022/07/23 07:31:31;;;;;;;0.40;0.30;;;22.70;99.90;;;;;;4932504;29;20391;-69
2022/07/23 07:33:57;;;;;;;0.47;0.32;;;22.80;99.90;;;;;;4915264;29;20506;-69
2022/07/23 07:36:23;;;;;;;0.47;0.47;;;22.80;99.90;;;;;;4932621;29;20407;-69
2022/07/23 07:38:49;;;;;;;0.40;0.40;;;22.70;99.90;;;;;;4932441;29;20418;-69
2022/07/23 07:41:15;;;;;;;0.40;0.40;;;22.70;99.90;;;;;;4933083;29;20376;-68
2022/07/23 07:43:41;;;;;;;0.40;0.20;;;22.80;99.90;;;;;;4932963;29;20415;-69
2022/07/23 07:46:10;;;;;;;0.40;0.30;;;22.80;99.90;;;;;;4932027;29;20494;-68
2022/07/23 07:48:37;;;;;;;0.40;0.30;;;22.80;99.90;;;;;;4932982;29;20395;-69
2022/07/23 07:51:04;;;;;;;0.40;0.20;;;22.80;99.90;;;;;;4947366;29;20396;-69
2022/07/23 07:53:30;;;;;;;0.80;0.80;;;22.80;99.90;;;;;;4933035;29;20416;-68
2022/07/23 07:55:55;;;;;;;0.40;0.38;;;22.90;99.90;;;;;;4931921;29;20411;-68
2022/07/23 07:58:21;;;;;;;0.40;0.30;;;23.00;99.90;;;;;;4933078;29;20780;-68
2022/07/23 08:00:47;;;;;;;0.50;0.50;;;23.00;99.90;;;;;;4932657;29;20388;-69
2022/07/23 08:03:13;;;;;;;0.40;0.30;;;23.10;99.90;;;;;;4931608;29;20399;-68
2022/07/23 08:05:38;;;;;;;0.60;0.60;;;23.10;99.90;;;;;;4932806;29;20896;-69
2022/07/23 08:08:04;;;;;;;0.40;0.30;;;23.10;99.90;;;;;;4932224;29;20896;-69
2022/07/23 08:10:31;;;;;;;0.80;0.70;;;23.00;99.90;;;;;;4932634;29;20391;-68
2022/07/23 08:12:58;;;;;;;0.40;0.30;;;23.10;99.90;;;;;;4932214;29;20506;-68
2022/07/23 08:15:25;;;;;;;0.50;0.50;;;23.00;99.90;;;;;;4932539;29;20410;-68
2022/07/23 08:17:51;;;;;;;0.60;0.60;;;23.00;99.90;;;;;;4932614;29;20879;-68
2022/07/23 08:20:19;;;;;;;1.50;1.40;;;23.20;99.90;;;;;;4935998;29;20392;-68
2022/07/23 08:22:58;;;;;;;0.40;0.30;;;23.40;99.90;;;;;;4929443;29;20403;-68
2022/07/23 08:25:32;;;;;;;0.40;0.30;;;23.50;99.90;;;;;;4935618;29;20813;-68
2022/07/23 08:28:00;;;;;;;0.50;0.40;;;23.50;99.90;;;;;;4935400;29;20387;-68
2022/07/23 08:30:26;;;;;;;0.40;0.40;;;23.60;99.90;;;;;;4936031;29;20396;-68
2022/07/23 08:33:01;;;;;;;0.70;0.60;;;23.50;99.90;;;;;;4935305;29;20490;-68
2022/07/23 08:35:32;;;;;;;0.40;0.20;;;23.60;99.90;;;;;;4935540;29;20503;-68
2022/07/23 08:38:00;;;;;;;0.80;0.80;;;23.60;99.90;;;;;;4935221;29;20414;-68
2022/07/23 08:40:28;;;;;;;0.40;0.40;;;23.70;99.90;;;;;;4935631;29;20798;-68
2022/07/23 08:42:53;;;;;;;0.50;0.40;;;23.80;99.90;;;;;;4934814;29;20404;-68
2022/07/23 08:45:22;;;;;;;0.40;0.30;;;23.80;99.90;;;;;;4935985;29;20856;-68
2022/07/23 08:47:53;;;;;;;0.70;0.70;;;24.00;99.90;;;;;;4934869;29;20384;-68
2022/07/23 08:50:20;;;;;;;0.40;0.40;;;24.10;99.90;;;;;;4935589;29;20460;-68
2022/07/23 08:52:45;;;;;;;0.40;0.30;;;24.10;99.90;;;;;;4935656;29;20749;-68
2022/07/23 08:55:12;;;;;;;0.40;0.30;;;24.20;99.90;;;;;;4935058;29;20430;-68
2022/07/23 08:57:37;;;;;;;0.60;0.50;;;24.20;99.90;;;;;;4935956;29;20733;-68
2022/07/23 09:00:06;;;;;;;0.40;0.30;;;24.20;99.90;;;;;;4929372;29;20468;-68
2022/07/23 09:02:39;;;;;;;0.40;0.30;;;24.30;99.90;;;;;;4934176;29;20404;-68
2022/07/23 09:05:06;;;;;;;0.40;0.20;;;24.50;99.90;;;;;;4934138;29;20426;-68
2022/07/23 09:07:32;;;;;;;0.40;0.30;;;24.70;99.90;;;;;;4934846;29;20450;-68
2022/07/23 09:10:09;;;;;;;0.40;0.32;;;24.70;99.90;;;;;;4932432;29;20400;-68
2022/07/23 09:12:35;;;;;;;0.40;0.20;;;24.80;99.90;;;;;;4934305;29;20431;-68
2022/07/23 09:15:08;;;;;;;0.40;0.25;;;24.80;99.90;;;;;;4933768;29;20431;-68
2022/07/23 09:17:40;;;;;;;3.40;1.20;;;24.80;99.90;;;;;;4934158;29;20423;-68
2022/07/23 09:20:15;;;;;;;0.60;0.60;;;24.80;99.90;;;;;;4930880;29;20918;-68
2022/07/23 09:22:45;;;;;;;0.40;0.20;;;24.90;99.90;;;;;;4934201;29;20396;-68
2022/07/23 09:25:14;;;;;;;0.40;0.30;;;24.80;99.90;;;;;;4933571;29;20422;-69
2022/07/23 09:27:49;;;;;;;0.40;0.30;;;24.80;99.90;;;;;;4934595;29;20768;-68
2022/07/23 09:30:15;;;;;;;0.40;0.30;;;25.00;99.90;;;;;;4934557;29;20418;-68
2022/07/23 09:32:41;;;;;;;0.40;0.30;;;25.00;99.90;;;;;;4934991;29;20444;-68
2022/07/23 09:35:07;;;;;;;0.40;0.30;;;25.00;99.90;;;;;;4934419;29;20489;-68
2022/07/23 09:37:32;;;;;;;0.70;0.70;;;25.00;99.90;;;;;;4934407;29;20865;-68
2022/07/23 09:40:12;;;;;;;0.40;0.40;;;25.10;99.90;;;;;;4933410;29;20512;-68
2022/07/23 09:42:38;;;;;;;0.40;0.20;;;25.10;99.90;;;;;;4934566;29;20442;-68
2022/07/23 09:45:12;;;;;;;1.00;1.00;;;25.10;99.90;;;;;;4933332;29;20415;-68
2022/07/23 09:47:37;;;;;;;1.40;1.00;;;25.10;99.90;;;;;;4934171;29;20396;-68
2022/07/23 09:50:05;;;;;;;0.50;0.50;;;25.20;99.90;;;;;;4933482;29;20455;-68
2022/07/23 09:52:52;;;;;;;0.40;0.40;;;25.20;99.90;;;;;;4933759;29;20760;-68
2022/07/23 09:55:18;;;;;;;0.40;0.40;;;25.20;99.90;;;;;;4934003;29;20427;-68
2022/07/23 09:57:46;;;;;;;0.40;0.30;;;25.20;99.90;;;;;;4934404;29;20403;-68
2022/07/23 10:00:13;;;;;;;0.40;0.20;;;25.40;99.90;;;;;;4933732;29;21253;-68
2022/07/23 10:02:40;;;;;;;0.70;0.70;;;25.40;99.90;;;;;;4934143;29;21061;-68
2022/07/23 10:05:06;;;;;;;0.40;0.30;;;25.40;99.90;;;;;;4933224;29;20915;-68
2022/07/23 10:07:36;;;;;;;0.60;0.50;;;25.50;99.90;;;;;;4933793;29;20420;-68
2022/07/23 10:10:04;;;;;;;0.40;0.20;;;25.50;99.90;;;;;;4933246;29;20478;-68
2022/07/23 10:15:14;;;;;;;0.40;0.40;;;25.80;99.90;;;;;;4933742;29;20939;-68
2022/07/23 10:17:39;;;;;;;0.40;0.30;;;25.90;99.90;;;;;;4934956;29;20408;-68
2022/07/23 10:20:05;;;;;;;0.40;0.30;;;25.80;99.90;;;;;;4933216;29;20395;-68
2022/07/23 10:22:37;;;;;;;0.40;0.30;;;26.10;99.90;;;;;;4933970;29;20490;-68
2022/07/23 10:25:37;;;;;;;0.40;0.30;;;26.00;99.90;;;;;;4933395;29;20407;-68
2022/07/23 10:28:22;;;;;;;0.40;0.28;;;26.00;99.90;;;;;;4929992;29;20411;-68
2022/07/23 10:30:51;;;;;;;1.00;0.90;;;25.90;99.90;;;;;;4934345;29;20431;-68
2022/07/23 10:33:44;;;;;;;0.40;0.30;;;26.10;99.90;;;;;;4933279;29;20431;-68
2022/07/23 10:36:10;;;;;;;0.40;0.40;;;25.90;99.90;;;;;;4933419;29;20400;-68
2022/07/23 10:38:52;;;;;;;0.40;0.30;;;25.90;99.90;;;;;;4934229;29;20406;-68
2022/07/23 10:41:35;;;;;;;1.00;0.90;;;26.10;99.90;;;;;;4931844;29;20410;-68
2022/07/23 10:44:19;;;;;;;0.40;0.30;;;26.20;99.00;;;;;;4932882;29;20410;-68
2022/07/23 10:49:42;;;;;;;1.30;1.10;;;26.00;99.90;;;;;;4933701;29;20451;-68
2022/07/23 10:52:14;;;;;;;0.40;0.20;;;26.10;99.90;;;;;;4932860;29;20470;-68
2022/07/23 10:54:53;;;;;;;0.57;0.57;;;26.10;98.70;;;;;;4933339;29;20440;-68
2022/07/23 10:57:24;;;;;;;0.80;0.70;;;26.10;97.80;;;;;;4933710;29;20399;-68
2022/07/23 11:00:22;;;;;;;0.40;0.20;;;25.90;98.10;;;;;;4933796;29;20438;-68
2022/07/23 11:02:53;;;;;;;0.47;0.47;;;25.70;99.90;;;;;;4932532;29;20422;-68
2022/07/23 11:05:24;;;;;;;1.20;0.50;;;25.70;99.90;;;;;;4933717;29;20686;-68
2022/07/23 11:08:04;;;;;;;0.40;0.22;;;25.90;99.90;;;;;;4933837;29;20535;-67
2022/07/23 11:10:51;;;;;;;0.40;0.30;;;25.90;99.90;;;;;;4932884;29;20408;-68
2022/07/23 11:13:27;;;;;;;4.70;0.90;;;26.00;99.90;;;;;;4933001;29;20423;-68
2022/07/23 11:16:04;;;;;;;0.60;0.60;;;26.10;99.90;;;;;;4932671;29;20399;-68
2022/07/23 11:18:42;;;;;;;0.40;0.30;;;26.20;99.90;;;;;;4933425;29;20395;-68
2022/07/23 11:21:23;;;;;;;0.40;0.20;;;26.40;99.90;;;;;;4932834;29;20402;-68
2022/07/23 11:24:08;;;;;;;0.50;0.50;;;26.70;99.90;;;;;;4933469;29;20491;-68
2022/07/23 11:26:39;;;;;;;0.80;0.70;;;26.80;99.90;;;;;;4933274;29;20395;-68
2022/07/23 11:29:36;;;;;;;0.40;0.30;;;27.10;99.90;;;;;;4932732;29;20396;-68
2022/07/23 11:32:22;;;;;;;0.40;0.30;;;27.30;99.90;;;;;;4932566;29;20467;-68
2022/07/23 11:34:49;;;;;;;0.50;0.45;;;27.40;97.90;;;;;;4933677;29;20449;-68
2022/07/23 11:37:34;;;;;;;0.40;0.20;;;27.30;97.30;;;;;;4932536;29;20401;-68
2022/07/23 11:40:02;;;;;;;1.90;0.70;;;27.40;99.90;;;;;;4932736;29;20396;-68
2022/07/23 11:42:28;;;;;;;0.40;0.20;;;27.70;99.90;;;;;;4933085;29;20805;-69
2022/07/23 11:44:53;;;;;;;0.40;0.30;;;27.70;99.80;;;;;;4932865;29;20400;-69
2022/07/23 11:47:25;;;;;;;0.90;0.40;;;27.80;99.30;;;;;;4933201;29;20395;-68
2022/07/23 11:49:59;;;;;;;0.70;0.43;;;28.00;98.40;;;;;;4932884;29;20387;-67
2022/07/23 11:52:26;;;;;;;1.50;1.42;;;28.20;94.90;;;;;;4932146;29;20390;-68
2022/07/23 11:55:09;;;;;;;0.40;0.40;;;28.40;93.70;;;;;;4936766;29;20502;-68
2022/07/23 11:57:40;;;;;;;0.40;0.30;;;28.10;94.90;;;;;;4936980;29;20395;-70
2022/07/23 12:00:10;;;;;;;0.40;0.20;;;28.30;94.50;;;;;;4936497;29;20379;-71
2022/07/23 12:02:38;;;;;;;0.40;0.30;;;28.50;95.80;;;;;;4936452;29;20450;-70
2022/07/23 12:05:05;;;;;;;0.40;0.30;;;28.60;96.30;;;;;;4935903;29;20553;-70
2022/07/23 12:07:32;;;;;;;0.40;0.30;;;28.80;94.80;;;;;;4935667;29;20743;-71
2022/07/23 12:10:08;;;;;;;0.40;0.30;;;28.60;93.20;;;;;;4934838;29;20403;-71
2022/07/23 12:13:00;;;;;;;0.40;0.20;;;28.90;93.00;;;;;;4935084;29;20454;-70
2022/07/23 12:15:32;;;;;;;0.98;0.98;;;29.00;94.30;;;;;;4935100;29;20396;-71
2022/07/23 12:18:00;;;;;;;0.40;0.30;;;29.60;90.60;;;;;;4934334;29;20868;-71
2022/07/23 12:20:35;;;;;;;0.40;0.30;;;30.00;90.30;;;;;;4935361;29;20447;-70
2022/07/23 12:23:04;;;;;;;0.40;0.30;;;30.00;90.60;;;;;;4934824;29;20387;-70
2022/07/23 12:25:32;;;;;;;0.60;0.40;;;29.00;91.30;;;;;;4934841;29;20403;-71
2022/07/23 12:28:13;;;;;;;0.40;0.20;;;28.60;93.20;;;;;;4934488;29;20403;-70
2022/07/23 12:30:45;;;;;;;1.10;1.00;;;28.90;92.60;;;;;;4935198;29;20423;-70
2022/07/23 12:33:22;;;;;;;0.40;0.20;;;29.40;91.00;;;;;;4931888;29;20459;-70
2022/07/23 12:35:48;;;;;;;0.40;0.20;;;30.00;86.60;;;;;;4935355;29;20907;-70
2022/07/23 12:38:17;;;;;;;1.00;0.90;;;30.90;83.30;;;;;;4934470;29;20395;-71
2022/07/23 12:40:57;;;;;;;0.40;0.22;;;30.70;86.10;;;;;;4935010;29;20470;-70
2022/07/23 12:43:24;;;;;;;0.40;0.20;;;30.30;85.50;;;;;;4935204;29;20388;-70
2022/07/23 12:45:56;;;;;;;0.40;0.30;;;30.40;86.70;;;;;;4926460;29;20411;-70
2022/07/23 12:48:23;;;;;;;0.40;0.30;;;30.60;81.40;;;;;;4925937;29;20395;-70
2022/07/23 12:50:55;;;;;;;0.40;0.20;;;30.40;86.00;;;;;;4924457;29;20466;-70
2022/07/23 12:53:22;;;;;;;0.50;0.50;;;29.60;84.80;;;;;;4924659;29;20427;-68
2022/07/23 12:55:49;;;;;;;0.40;0.30;;;30.50;81.00;;;;;;4926157;29;20967;-69
2022/07/23 12:58:19;;;;;;;0.50;0.40;;;31.20;78.20;;;;;;4923989;29;20421;-68